Time;durP1;ratioP1;P1;durP2;ratioP2;P2;SDS_P1;SDS_P2;PMS_P1;PMS_P2;Temp;Humidity;BMP_temperature;BMP_pressure;BME280_temperature;BME280_humidity;BME280_pressure;Samples;Min_cycle;Max_cycle;Signal;HPM_P1;HPM_P2
2021/03/09 00:01:54;;;;;;;3.42;2.75;;;-4.20;99.90;;;;;;4769882;29;20436;-89
2021/03/09 00:04:23;;;;;;;3.05;2.75;;;-4.20;99.90;;;;;;4768311;29;20929;-89
2021/03/09 00:06:50;;;;;;;2.88;2.60;;;-4.20;99.90;;;;;;4781168;29;20410;-88
2021/03/09 00:09:18;;;;;;;3.58;2.70;;;-4.20;99.90;;;;;;4785699;29;20401;-87
2021/03/09 00:11:45;;;;;;;3.10;2.80;;;-4.40;99.90;;;;;;4779862;29;20432;-91
2021/03/09 00:14:11;;;;;;;2.67;2.47;;;-4.20;99.90;;;;;;4751048;29;20416;-90
2021/03/09 00:16:40;;;;;;;3.88;2.95;;;-4.40;99.90;;;;;;4789737;29;20425;-88
2021/03/09 00:19:06;;;;;;;4.53;3.00;;;-4.40;99.90;;;;;;4784608;29;20471;-86
2021/03/09 00:21:32;;;;;;;3.08;2.67;;;-4.70;99.90;;;;;;4803428;29;20427;-90
2021/03/09 00:23:59;;;;;;;3.75;2.60;;;-4.60;99.90;;;;;;4769731;29;20415;-90
2021/03/09 00:26:26;;;;;;;3.00;2.70;;;-4.50;99.90;;;;;;4792742;29;20417;-90
2021/03/09 00:28:53;;;;;;;3.10;2.67;;;-4.60;99.90;;;;;;4776119;29;20408;-87
2021/03/09 00:31:19;;;;;;;3.55;2.90;;;-4.60;99.90;;;;;;4795894;29;20429;-91
2021/03/09 00:33:45;;;;;;;4.10;2.50;;;-4.50;99.90;;;;;;4751573;29;20429;-90
2021/03/09 00:36:12;;;;;;;2.83;2.58;;;-4.70;99.90;;;;;;4767542;29;20427;-90
2021/03/09 00:38:38;;;;;;;3.00;2.67;;;-4.70;99.90;;;;;;4790608;29;20522;-92
2021/03/09 00:41:07;;;;;;;3.15;2.88;;;-4.50;99.90;;;;;;4765537;29;20458;-87
2021/03/09 00:43:33;;;;;;;3.28;2.50;;;-4.60;99.90;;;;;;4785311;29;20415;-88
2021/03/09 00:46:00;;;;;;;5.03;2.80;;;-4.30;99.90;;;;;;4788214;29;20481;-90
2021/03/09 00:48:26;;;;;;;2.83;2.38;;;-4.50;99.90;;;;;;4780860;29;21018;-91
2021/03/09 00:50:52;;;;;;;3.85;2.92;;;-4.60;99.90;;;;;;4777944;29;20810;-89
2021/03/09 00:53:18;;;;;;;3.83;3.08;;;-4.30;99.90;;;;;;4776417;29;20434;-85
2021/03/09 00:55:44;;;;;;;3.30;3.00;;;-4.50;99.90;;;;;;4764295;29;20414;-89
2021/03/09 00:58:11;;;;;;;4.80;3.25;;;-4.40;99.90;;;;;;4767837;29;20424;-89
2021/03/09 01:00:37;;;;;;;3.80;3.05;;;-4.50;99.90;;;;;;4781021;29;20422;-90
2021/03/09 01:03:03;;;;;;;2.65;2.45;;;-4.60;99.90;;;;;;4776211;29;20420;-89
2021/03/09 01:05:29;;;;;;;4.25;2.90;;;-4.60;99.90;;;;;;4791919;29;20846;-89
2021/03/09 01:07:56;;;;;;;3.30;2.88;;;-4.40;99.90;;;;;;4755109;29;20411;-90
2021/03/09 01:10:22;;;;;;;4.43;2.92;;;-4.50;99.90;;;;;;4783181;29;20415;-88
2021/03/09 01:12:48;;;;;;;4.97;3.10;;;-4.60;99.90;;;;;;4753657;29;20424;-91
2021/03/09 01:15:15;;;;;;;3.33;2.75;;;-4.70;99.90;;;;;;4796273;29;20800;-91
2021/03/09 01:17:44;;;;;;;3.25;2.72;;;-4.70;99.90;;;;;;4799447;29;20531;-89
2021/03/09 01:20:10;;;;;;;4.40;2.70;;;-4.70;99.90;;;;;;4769980;29;20429;-90
2021/03/09 01:22:39;;;;;;;2.88;2.58;;;-4.70;99.90;;;;;;4763459;29;20476;-91
2021/03/09 01:25:06;;;;;;;3.10;2.80;;;-4.60;99.90;;;;;;4777446;29;20476;-86
2021/03/09 01:27:32;;;;;;;3.03;2.78;;;-4.70;99.90;;;;;;4777680;29;20502;-88
2021/03/09 01:29:59;;;;;;;3.33;2.92;;;-4.60;99.90;;;;;;4776106;29;20430;-91
2021/03/09 01:32:25;;;;;;;2.90;2.65;;;-4.70;99.90;;;;;;4773390;29;20991;-88
2021/03/09 01:34:51;;;;;;;3.72;2.85;;;-4.70;99.90;;;;;;4764960;29;20823;-88
2021/03/09 01:37:18;;;;;;;3.88;2.70;;;-4.70;99.90;;;;;;4793941;29;20436;-86
2021/03/09 01:39:44;;;;;;;3.20;2.90;;;-4.80;99.90;;;;;;4781696;29;20423;-90
2021/03/09 01:42:10;;;;;;;4.25;2.65;;;-4.80;99.90;;;;;;4779070;29;20427;-90
2021/03/09 01:44:38;;;;;;;4.07;3.05;;;-4.70;99.90;;;;;;4774368;29;25649;-87
2021/03/09 01:47:04;;;;;;;4.22;3.13;;;-4.70;99.90;;;;;;4798965;29;20986;-90
2021/03/09 01:49:32;;;;;;;3.20;2.70;;;-4.70;99.90;;;;;;4772339;29;20427;-90
2021/03/09 01:51:59;;;;;;;3.45;2.65;;;-4.70;99.90;;;;;;4768375;29;20486;-90
2021/03/09 01:54:25;;;;;;;6.30;3.15;;;-4.70;99.90;;;;;;4767436;29;20508;-91
2021/03/09 01:56:51;;;;;;;3.60;2.92;;;-4.90;99.90;;;;;;4774731;29;20430;-91
2021/03/09 01:59:17;;;;;;;4.30;3.40;;;-4.70;99.90;;;;;;4770902;29;20442;-87
2021/03/09 02:01:46;;;;;;;4.00;3.08;;;-4.60;99.90;;;;;;4758539;29;20413;-91
2021/03/09 02:04:12;;;;;;;4.07;2.83;;;-4.80;99.90;;;;;;4779115;29;20972;-91
2021/03/09 02:06:41;;;;;;;3.38;2.85;;;-4.90;99.90;;;;;;4789333;29;20422;-90
2021/03/09 02:09:07;;;;;;;3.72;3.00;;;-4.80;99.90;;;;;;4768460;29;20425;-85
2021/03/09 02:11:54;;;;;;;4.93;3.47;;;-4.70;99.90;;;;;;4783189;29;20428;-89
2021/03/09 02:14:38;;;;;;;3.95;3.10;;;-4.90;99.90;;;;;;4774525;29;20436;-91
2021/03/09 02:17:41;;;;;;;5.23;3.00;;;-5.00;99.90;;;;;;4811352;29;20480;-91
2021/03/09 02:20:48;;;;;;;5.33;2.80;;;-4.90;99.90;;;;;;4778238;29;20531;-85
2021/03/09 02:23:25;;;;;;;4.83;3.13;;;-4.90;99.90;;;;;;4782441;29;20452;-90
2021/03/09 02:26:11;;;;;;;4.63;3.30;;;-4.90;99.90;;;;;;4781819;29;20790;-87
2021/03/09 02:29:03;;;;;;;3.97;3.58;;;-4.90;99.90;;;;;;4786473;29;20538;-90
2021/03/09 02:31:29;;;;;;;3.65;3.35;;;-4.90;99.90;;;;;;4774618;29;20935;-89
2021/03/09 02:34:08;;;;;;;3.97;3.35;;;-5.00;99.90;;;;;;4766302;29;20865;-89
2021/03/09 02:36:34;;;;;;;3.80;3.20;;;-5.00;99.90;;;;;;4772994;29;20416;-83
2021/03/09 02:39:10;;;;;;;4.67;3.17;;;-4.90;99.90;;;;;;4782740;29;20440;-90
2021/03/09 02:41:43;;;;;;;7.03;3.58;;;-5.00;99.90;;;;;;4778246;29;20969;-90
2021/03/09 02:44:10;;;;;;;4.65;3.50;;;-5.10;99.90;;;;;;4782870;29;21023;-89
2021/03/09 02:46:36;;;;;;;7.40;3.70;;;-5.10;99.90;;;;;;4768241;29;20439;-89
2021/03/09 02:49:01;;;;;;;6.73;3.47;;;-5.10;99.90;;;;;;4766513;29;20499;-88
2021/03/09 02:51:27;;;;;;;4.67;3.60;;;-5.20;99.90;;;;;;4785588;29;20416;-90
2021/03/09 02:53:54;;;;;;;6.07;3.90;;;-5.10;99.90;;;;;;4766797;29;20876;-89
2021/03/09 02:56:21;;;;;;;6.97;4.03;;;-5.20;99.90;;;;;;4761494;29;20424;-89
2021/03/09 02:58:49;;;;;;;4.55;3.53;;;-5.20;99.90;;;;;;4783237;29;20960;-88
2021/03/09 03:01:15;;;;;;;5.75;3.50;;;-5.10;99.90;;;;;;4782767;29;20692;-91
2021/03/09 03:03:40;;;;;;;5.32;3.90;;;-5.20;99.90;;;;;;4779819;29;20463;-90
2021/03/09 03:06:06;;;;;;;5.00;3.70;;;-5.20;99.90;;;;;;4765229;29;20432;-89
2021/03/09 03:08:32;;;;;;;6.55;3.75;;;-5.00;99.90;;;;;;4782081;29;21136;-90
2021/03/09 03:10:58;;;;;;;4.90;3.55;;;-5.20;99.90;;;;;;4752376;29;20420;-91
2021/03/09 03:13:23;;;;;;;4.45;3.58;;;-5.20;99.90;;;;;;4775066;29;20492;-90
2021/03/09 03:15:50;;;;;;;5.07;3.73;;;-5.20;99.90;;;;;;4781097;29;20412;-90
2021/03/09 03:18:16;;;;;;;4.18;3.40;;;-5.20;99.90;;;;;;4779536;29;20434;-91
2021/03/09 03:20:43;;;;;;;6.60;4.35;;;-5.20;99.90;;;;;;4757601;29;20424;-91
2021/03/09 03:23:09;;;;;;;4.90;3.55;;;-5.30;99.90;;;;;;4766654;29;21317;-90
2021/03/09 03:25:35;;;;;;;4.05;3.47;;;-5.30;99.90;;;;;;4762439;29;20431;-90
2021/03/09 03:28:01;;;;;;;5.93;4.25;;;-5.00;99.90;;;;;;4772101;29;20420;-88
2021/03/09 03:30:27;;;;;;;5.82;3.83;;;-5.30;99.90;;;;;;4766072;29;20505;-87
2021/03/09 03:32:53;;;;;;;4.18;3.65;;;-5.30;99.90;;;;;;4767658;29;20941;-91
2021/03/09 03:35:19;;;;;;;4.20;3.40;;;-5.30;99.90;;;;;;4784429;29;20427;-88
2021/03/09 03:37:45;;;;;;;6.55;3.85;;;-5.40;99.90;;;;;;4769950;29;20514;-90
2021/03/09 03:40:14;;;;;;;5.40;3.50;;;-5.40;99.90;;;;;;4780719;29;20422;-91
2021/03/09 03:42:40;;;;;;;7.13;3.70;;;-5.40;99.90;;;;;;4767406;29;20468;-90
2021/03/09 03:45:07;;;;;;;6.00;3.80;;;-5.50;99.90;;;;;;4775369;29;20431;-89
2021/03/09 03:47:34;;;;;;;4.75;3.95;;;-5.50;99.90;;;;;;4780243;29;20447;-90
2021/03/09 03:50:00;;;;;;;5.32;4.40;;;-5.50;99.90;;;;;;4762397;29;20423;-91
2021/03/09 03:52:32;;;;;;;5.70;4.15;;;-5.50;99.90;;;;;;4800384;29;20418;-91
2021/03/09 03:55:32;;;;;;;7.43;5.35;;;-5.50;99.90;;;;;;4774338;29;20900;-91
2021/03/09 03:58:00;;;;;;;6.28;5.10;;;-5.50;99.90;;;;;;4754628;29;20427;-91
2021/03/09 04:00:25;;;;;;;5.45;4.35;;;-5.50;99.90;;;;;;4784578;29;20471;-91
2021/03/09 04:02:51;;;;;;;6.10;3.90;;;-5.50;99.90;;;;;;4789549;29;20447;-90
2021/03/09 04:05:17;;;;;;;6.90;4.97;;;-5.50;99.90;;;;;;4800417;29;20411;-87
2021/03/09 04:07:43;;;;;;;8.40;5.00;;;-5.50;99.90;;;;;;4777405;29;20417;-90
2021/03/09 04:10:08;;;;;;;6.47;4.93;;;-5.50;99.90;;;;;;4784684;29;20418;-88
2021/03/09 04:12:35;;;;;;;7.27;5.20;;;-5.40;99.90;;;;;;4777293;29;20496;-90
2021/03/09 04:15:00;;;;;;;6.97;4.53;;;-5.50;99.90;;;;;;4758797;29;20483;-86
2021/03/09 04:17:26;;;;;;;6.50;5.18;;;-5.50;99.90;;;;;;4789840;29;20432;-90
2021/03/09 04:19:53;;;;;;;10.05;5.53;;;-5.50;99.90;;;;;;4802961;29;20437;-90
2021/03/09 04:22:19;;;;;;;7.03;5.30;;;-5.50;99.90;;;;;;4782757;29;20423;-91
2021/03/09 04:24:44;;;;;;;9.80;5.47;;;-5.40;99.90;;;;;;4769910;29;20494;-90
2021/03/09 04:27:20;;;;;;;10.20;6.07;;;-5.50;99.90;;;;;;4770311;29;20476;-90
2021/03/09 04:29:48;;;;;;;7.55;5.57;;;-5.50;99.90;;;;;;4768516;29;20436;-90
2021/03/09 04:32:14;;;;;;;7.97;5.70;;;-5.60;99.90;;;;;;4784419;29;20487;-90
2021/03/09 04:34:39;;;;;;;7.57;5.68;;;-5.60;99.90;;;;;;4768062;29;20446;-90
2021/03/09 04:37:05;;;;;;;9.43;6.15;;;-5.60;99.90;;;;;;4772254;29;20862;-87
2021/03/09 04:39:31;;;;;;;8.77;5.85;;;-5.60;99.90;;;;;;4805027;29;20486;-89
2021/03/09 04:41:57;;;;;;;9.40;5.82;;;-5.60;99.90;;;;;;4776522;29;20469;-88
2021/03/09 04:44:23;;;;;;;8.77;5.70;;;-5.70;99.90;;;;;;4768625;29;20470;-89
2021/03/09 04:46:49;;;;;;;8.48;5.70;;;-5.70;99.90;;;;;;4755975;29;20423;-90
2021/03/09 04:49:18;;;;;;;7.37;5.37;;;-5.70;99.90;;;;;;4774698;29;20416;-90
2021/03/09 04:51:46;;;;;;;9.77;5.68;;;-5.70;99.90;;;;;;4784435;29;20499;-91
2021/03/09 04:54:12;;;;;;;10.57;5.78;;;-5.70;99.90;;;;;;4763455;29;20501;-91
2021/03/09 04:56:38;;;;;;;12.35;8.25;;;-5.60;99.90;;;;;;4786615;29;20509;-92
2021/03/09 04:59:05;;;;;;;35.30;24.45;;;-5.60;99.90;;;;;;4749480;29;20466;-89
2021/03/09 05:01:32;;;;;;;15.18;11.88;;;-5.70;99.90;;;;;;4795558;29;20476;-90
2021/03/09 05:03:58;;;;;;;11.55;7.50;;;-5.80;99.90;;;;;;4772592;29;20431;-91
2021/03/09 05:06:24;;;;;;;8.35;5.75;;;-5.90;99.90;;;;;;4794595;29;20916;-93
2021/03/09 05:08:49;;;;;;;10.00;6.15;;;-5.70;99.90;;;;;;4804801;29;21135;-92
2021/03/09 05:11:15;;;;;;;10.32;5.45;;;-5.70;99.90;;;;;;4787037;29;20479;-92
2021/03/09 05:13:42;;;;;;;8.10;5.80;;;-5.90;99.90;;;;;;4764140;29;20419;-91
2021/03/09 05:16:08;;;;;;;8.95;5.60;;;-5.90;99.90;;;;;;4763402;29;20439;-92
2021/03/09 05:18:34;;;;;;;9.05;5.55;;;-5.80;99.90;;;;;;4777098;29;20435;-90
2021/03/09 05:21:02;;;;;;;8.95;5.53;;;-6.00;99.90;;;;;;4783396;29;20927;-92
2021/03/09 05:23:28;;;;;;;8.48;5.65;;;-6.00;99.90;;;;;;4771557;29;20435;-90
2021/03/09 05:25:55;;;;;;;6.65;5.50;;;-5.80;99.90;;;;;;4774653;29;20432;-92
2021/03/09 05:28:20;;;;;;;9.02;5.75;;;-5.90;99.90;;;;;;4770092;29;20914;-92
2021/03/09 05:30:46;;;;;;;7.60;5.93;;;-6.00;99.90;;;;;;4784490;29;20481;-92
2021/03/09 05:33:12;;;;;;;10.10;6.30;;;-5.90;99.90;;;;;;4789974;29;20419;-82
2021/03/09 05:35:38;;;;;;;7.75;5.82;;;-6.00;99.90;;;;;;4795323;29;20457;-92
2021/03/09 05:38:04;;;;;;;8.80;6.40;;;-5.90;99.90;;;;;;4776628;29;20784;-91
2021/03/09 05:40:30;;;;;;;8.35;5.80;;;-6.00;99.90;;;;;;4780972;29;20425;-92
2021/03/09 05:42:56;;;;;;;10.98;6.57;;;-6.00;99.90;;;;;;4769459;29;20420;-90
2021/03/09 05:45:22;;;;;;;9.27;6.30;;;-5.90;99.90;;;;;;4787625;29;20407;-92
2021/03/09 05:47:49;;;;;;;12.35;7.10;;;-5.90;99.90;;;;;;4789283;29;20415;-91
2021/03/09 05:50:15;;;;;;;10.07;7.10;;;-5.90;99.90;;;;;;4743617;29;20804;-90
2021/03/09 05:52:41;;;;;;;10.23;6.78;;;-5.70;99.90;;;;;;4777258;29;20446;-92
2021/03/09 05:55:09;;;;;;;8.97;6.37;;;-5.90;99.90;;;;;;4789848;29;20583;-89
2021/03/09 05:57:37;;;;;;;11.60;6.47;;;-5.80;99.90;;;;;;4788507;29;20510;-92
2021/03/09 06:00:04;;;;;;;11.95;7.97;;;-5.60;99.90;;;;;;4773839;29;20444;-92
2021/03/09 06:02:37;;;;;;;10.27;7.80;;;-5.70;99.90;;;;;;4793651;29;20846;-92
2021/03/09 06:05:04;;;;;;;14.57;9.80;;;-5.80;99.90;;;;;;4794317;29;20480;-93
2021/03/09 06:07:30;;;;;;;14.77;9.73;;;-5.70;99.90;;;;;;4780451;29;20510;-92
2021/03/09 06:09:56;;;;;;;13.60;8.83;;;-5.70;99.90;;;;;;4773309;29;21005;-93
2021/03/09 06:12:24;;;;;;;11.87;7.70;;;-5.50;99.90;;;;;;4754863;29;20472;-92
2021/03/09 06:14:59;;;;;;;11.02;6.90;;;-5.40;99.90;;;;;;4770321;29;20926;-90
2021/03/09 06:17:35;;;;;;;10.93;7.13;;;-5.40;99.90;;;;;;4798961;29;20429;-92
2021/03/09 06:20:01;;;;;;;9.77;6.93;;;-5.40;99.90;;;;;;4780210;29;20427;-92
2021/03/09 06:22:40;;;;;;;9.50;8.00;;;-5.20;99.90;;;;;;4787940;29;20430;-92
2021/03/09 06:25:08;;;;;;;10.73;7.65;;;-5.30;99.90;;;;;;4754923;30;20480;-91
2021/03/09 06:27:34;;;;;;;9.97;7.40;;;-5.30;99.90;;;;;;4769415;29;20987;-88
2021/03/09 06:30:01;;;;;;;12.38;8.32;;;-5.00;99.90;;;;;;4750072;29;20461;-92
2021/03/09 06:32:27;;;;;;;13.23;8.32;;;-5.10;99.90;;;;;;4787876;29;20548;-92
2021/03/09 06:34:54;;;;;;;11.90;8.50;;;-4.90;99.90;;;;;;4807090;29;20414;-91
2021/03/09 06:37:23;;;;;;;12.27;8.13;;;-4.80;99.90;;;;;;4788115;29;20430;-90
2021/03/09 06:39:57;;;;;;;14.07;9.00;;;-4.80;99.90;;;;;;4776415;29;20427;-91
2021/03/09 06:42:38;;;;;;;19.10;9.60;;;-4.70;99.90;;;;;;4754757;29;20538;-90
2021/03/09 06:45:11;;;;;;;18.17;8.80;;;-4.60;99.90;;;;;;4783819;29;20484;-90
2021/03/09 06:47:43;;;;;;;14.95;9.07;;;-4.60;99.90;;;;;;4772667;29;20407;-92
2021/03/09 06:50:11;;;;;;;11.82;9.18;;;-4.40;99.90;;;;;;4770426;29;20413;-87
2021/03/09 06:52:38;;;;;;;16.27;9.73;;;-4.40;99.90;;;;;;4788041;29;20420;-90
2021/03/09 06:55:06;;;;;;;14.32;9.48;;;-4.40;99.90;;;;;;4760141;29;20403;-91
2021/03/09 06:57:32;;;;;;;16.60;10.38;;;-4.30;99.90;;;;;;4773066;29;20439;-92
2021/03/09 06:59:58;;;;;;;16.77;10.32;;;-4.00;99.90;;;;;;4773184;29;20408;-92
2021/03/09 07:02:28;;;;;;;14.18;9.70;;;-4.10;99.90;;;;;;4743955;29;20407;-92
2021/03/09 07:05:07;;;;;;;18.85;9.82;;;-4.10;99.90;;;;;;4776246;29;20911;-92
2021/03/09 07:07:39;;;;;;;17.95;10.75;;;-4.10;99.90;;;;;;4752071;29;20421;-90
2021/03/09 07:10:14;;;;;;;14.95;10.27;;;-3.90;99.90;;;;;;4762066;29;20920;-90
2021/03/09 07:13:01;;;;;;;13.60;9.40;;;-3.80;99.90;;;;;;4783100;29;20498;-91
2021/03/09 07:15:44;;;;;;;13.55;9.70;;;-3.80;99.90;;;;;;4788024;29;20431;-91
2021/03/09 07:18:14;;;;;;;14.68;9.60;;;-3.70;99.90;;;;;;4785494;29;20455;-91
2021/03/09 07:20:49;;;;;;;17.60;10.53;;;-3.50;99.90;;;;;;4776099;29;20429;-92
2021/03/09 07:23:37;;;;;;;16.75;9.43;;;-3.60;99.90;;;;;;4768783;29;20572;-88
2021/03/09 07:26:18;;;;;;;14.48;8.38;;;-3.50;99.90;;;;;;4749443;29;20428;-88
2021/03/09 07:29:53;;;;;;;13.70;9.48;;;-3.40;99.90;;;;;;4753983;29;20488;-86
2021/03/09 07:32:44;;;;;;;15.50;10.38;;;-3.30;99.90;;;;;;4749957;29;20462;-90
2021/03/09 07:35:36;;;;;;;12.65;9.00;;;-3.10;99.90;;;;;;4755866;29;20424;-82
2021/03/09 07:41:29;;;;;;;15.88;9.85;;;-3.00;99.90;;;;;;4749841;29;20425;-80
2021/03/09 07:45:00;;;;;;;14.90;9.50;;;-2.80;99.90;;;;;;4724244;29;20435;-78
2021/03/09 07:48:23;;;;;;;18.27;10.55;;;-2.90;99.90;;;;;;4757207;29;20476;-81
2021/03/09 07:51:29;;;;;;;15.68;10.05;;;-2.40;99.90;;;;;;4795630;29;20435;-78
2021/03/09 07:55:55;;;;;;;14.47;9.47;;;-2.30;99.90;;;;;;4767224;29;20472;-77
2021/03/09 08:00:20;;;;;;;15.53;9.63;;;-1.80;99.90;;;;;;4742453;30;20518;-77
2021/03/09 08:15:26;;;;;;;11.77;8.97;;;-1.10;99.90;;;;;;4923177;24;20433;-83
2021/03/09 08:17:51;;;;;;;13.95;9.43;;;-0.90;99.90;;;;;;4831248;29;20500;-79
2021/03/09 08:20:56;;;;;;;16.63;9.25;;;-0.80;99.90;;;;;;4790438;29;20402;-79
2021/03/09 08:23:34;;;;;;;15.63;9.63;;;-0.70;99.90;;;;;;4816008;29;20964;-80
2021/03/09 08:26:07;;;;;;;14.27;9.57;;;-0.60;99.90;;;;;;4815257;29;20412;-80
2021/03/09 08:28:37;;;;;;;15.23;10.60;;;-0.50;99.90;;;;;;4804432;29;20447;-80
2021/03/09 08:31:11;;;;;;;16.02;9.90;;;-0.40;99.90;;;;;;4773267;29;20404;-80
2021/03/09 08:33:41;;;;;;;16.52;9.82;;;-0.30;99.90;;;;;;4800062;29;20412;-80
2021/03/09 08:40:14;;;;;;;16.08;9.85;;;-0.10;99.90;;;;;;4821013;29;20414;-77
2021/03/09 08:43:02;;;;;;;14.43;9.20;;;0.00;99.90;;;;;;4789219;29;20406;-78
2021/03/09 08:45:43;;;;;;;13.88;8.48;;;0.20;99.90;;;;;;4807014;29;20486;-79
2021/03/09 08:48:10;;;;;;;13.10;8.90;;;0.30;99.90;;;;;;4786935;29;20962;-79
2021/03/09 08:50:45;;;;;;;16.77;9.35;;;0.30;99.90;;;;;;4763753;29;20408;-79
2021/03/09 08:53:30;;;;;;;15.68;9.57;;;0.50;99.90;;;;;;4788719;29;20411;-79
2021/03/09 08:56:02;;;;;;;12.20;8.90;;;0.60;99.90;;;;;;4785039;29;20468;-79
2021/03/09 08:58:28;;;;;;;13.07;8.07;;;0.70;99.90;;;;;;4780180;29;20483;-79
2021/03/09 09:00:54;;;;;;;15.63;9.53;;;0.90;99.90;;;;;;4786732;29;20427;-79
2021/03/09 09:03:36;;;;;;;11.00;8.53;;;1.10;99.90;;;;;;4786070;29;20474;-79
2021/03/09 09:06:02;;;;;;;11.77;8.65;;;1.20;99.90;;;;;;4799173;29;20414;-79
2021/03/09 09:08:28;;;;;;;13.13;8.85;;;1.40;99.90;;;;;;4775111;29;20416;-79
2021/03/09 09:10:54;;;;;;;13.88;7.18;;;1.50;99.90;;;;;;4775247;29;20489;-79
2021/03/09 09:13:32;;;;;;;10.55;7.45;;;1.60;99.90;;;;;;4770881;29;20560;-79
2021/03/09 09:15:58;;;;;;;11.55;7.28;;;1.70;99.90;;;;;;4769742;29;20432;-79
2021/03/09 09:32:43;;;;;;;8.18;6.38;;;2.20;99.90;;;;;;4835629;29;20381;-80
2021/03/09 09:53:42;;;;;;;9.15;5.85;;;3.30;99.90;;;;;;4943923;24;20451;-79
2021/03/09 09:56:13;;;;;;;8.77;5.47;;;3.50;99.90;;;;;;4813824;29;20496;-78
2021/03/09 09:58:46;;;;;;;5.70;4.63;;;3.50;99.90;;;;;;4790407;29;20437;-78
2021/03/09 10:01:12;;;;;;;7.07;4.90;;;3.70;99.90;;;;;;4774782;29;20406;-78
2021/03/09 10:03:54;;;;;;;6.82;4.50;;;3.70;99.90;;;;;;4789276;29;20418;-81
2021/03/09 10:06:20;;;;;;;9.90;5.50;;;3.80;99.90;;;;;;4790374;29;20413;-79
2021/03/09 10:08:45;;;;;;;5.43;4.13;;;4.00;99.90;;;;;;4776036;29;20489;-80
2021/03/09 10:11:11;;;;;;;5.77;3.97;;;4.10;99.90;;;;;;4770305;29;20497;-79
2021/03/09 10:13:37;;;;;;;10.60;5.70;;;4.30;99.90;;;;;;4788120;29;20405;-81
2021/03/09 10:16:03;;;;;;;4.55;3.88;;;4.50;99.90;;;;;;4762638;29;20413;-81
2021/03/09 10:18:30;;;;;;;3.13;2.83;;;4.60;99.90;;;;;;4779450;30;20433;-79
2021/03/09 10:21:14;;;;;;;3.75;3.15;;;4.70;99.90;;;;;;4772139;29;20407;-80
2021/03/09 10:23:53;;;;;;;3.75;2.97;;;4.70;99.90;;;;;;4781277;29;20951;-79
2021/03/09 10:26:32;;;;;;;3.47;2.80;;;4.90;99.90;;;;;;4778901;29;20456;-79
2021/03/09 10:29:10;;;;;;;3.50;2.10;;;5.00;99.90;;;;;;4770918;29;20421;-80
2021/03/09 10:31:54;;;;;;;3.58;2.97;;;5.10;97.40;;;;;;4781935;29;20958;-80
2021/03/09 10:34:33;;;;;;;3.10;2.65;;;5.30;99.70;;;;;;4803334;29;20429;-80
2021/03/09 10:37:02;;;;;;;2.15;1.95;;;5.50;96.60;;;;;;4759131;29;20416;-81
2021/03/09 10:39:29;;;;;;;2.90;1.90;;;5.60;95.20;;;;;;4774645;29;20459;-82
2021/03/09 10:41:55;;;;;;;1.95;1.75;;;5.70;90.60;;;;;;4776582;29;20427;-82
2021/03/09 10:44:29;;;;;;;1.80;1.70;;;5.90;91.70;;;;;;4775878;29;20820;-80
2021/03/09 10:46:55;;;;;;;2.10;1.90;;;6.10;92.20;;;;;;4803827;29;20499;-81
2021/03/09 10:49:21;;;;;;;2.83;2.17;;;6.50;90.90;;;;;;4790011;29;20427;-80
2021/03/09 10:51:46;;;;;;;2.25;2.05;;;6.60;82.70;;;;;;4783058;29;20432;-80
2021/03/09 10:54:12;;;;;;;1.87;1.73;;;6.70;78.80;;;;;;4776708;29;20425;-80
2021/03/09 10:56:39;;;;;;;1.80;1.70;;;6.80;81.70;;;;;;4769381;29;20453;-79
2021/03/09 10:59:04;;;;;;;1.63;1.40;;;7.00;80.40;;;;;;4795438;29;20415;-79
2021/03/09 11:01:31;;;;;;;2.13;1.50;;;7.30;81.00;;;;;;4775641;29;21168;-80
2021/03/09 11:03:57;;;;;;;3.35;1.60;;;7.70;77.50;;;;;;4798615;29;20491;-80
2021/03/09 11:06:22;;;;;;;2.08;1.70;;;8.00;72.40;;;;;;4784459;29;20443;-85
2021/03/09 11:08:48;;;;;;;2.40;1.70;;;8.20;71.60;;;;;;4796476;29;20421;-90
2021/03/09 11:11:13;;;;;;;2.50;1.92;;;8.20;68.80;;;;;;4804886;29;20411;-86
2021/03/09 11:13:39;;;;;;;2.00;1.77;;;8.40;69.70;;;;;;4798002;29;20415;-84
2021/03/09 11:16:05;;;;;;;1.90;1.67;;;8.60;71.20;;;;;;4787041;29;20439;-80
2021/03/09 11:18:30;;;;;;;2.35;2.15;;;8.60;64.30;;;;;;4794785;29;20439;-80
2021/03/09 11:20:56;;;;;;;1.50;1.40;;;8.60;63.60;;;;;;4777940;29;20956;-82
2021/03/09 11:23:22;;;;;;;1.70;1.60;;;8.50;59.80;;;;;;4778886;29;21305;-80
2021/03/09 11:25:47;;;;;;;1.52;1.42;;;8.60;65.00;;;;;;4792909;29;20972;-81
2021/03/09 11:28:13;;;;;;;1.60;1.50;;;8.80;59.80;;;;;;4759989;30;20425;-80
2021/03/09 11:30:38;;;;;;;1.45;1.38;;;9.00;61.90;;;;;;4791343;29;20434;-82
2021/03/09 11:33:04;;;;;;;2.13;1.73;;;9.30;59.10;;;;;;4767098;30;20409;-80
2021/03/09 11:35:30;;;;;;;1.40;1.30;;;9.50;58.30;;;;;;4756258;29;20429;-85
2021/03/09 11:37:56;;;;;;;1.60;1.50;;;9.90;59.10;;;;;;4773104;29;20423;-80
2021/03/09 11:40:22;;;;;;;2.05;1.65;;;10.30;55.80;;;;;;4755714;29;20434;-80
2021/03/09 11:42:47;;;;;;;1.60;1.50;;;10.50;53.00;;;;;;4788344;29;20408;-81
2021/03/09 11:45:13;;;;;;;1.42;1.30;;;10.20;52.50;;;;;;4773384;29;20893;-81
2021/03/09 11:47:39;;;;;;;1.70;1.60;;;10.20;50.20;;;;;;4789163;29;20424;-82
2021/03/09 11:50:05;;;;;;;1.50;1.40;;;10.20;50.60;;;;;;4772619;29;21214;-83
2021/03/09 11:52:31;;;;;;;1.55;1.45;;;10.20;51.30;;;;;;4766187;29;20941;-82
2021/03/09 11:54:58;;;;;;;1.58;1.48;;;10.20;51.90;;;;;;4781112;29;20407;-81
2021/03/09 11:57:24;;;;;;;2.58;1.55;;;10.60;53.50;;;;;;4764229;29;20415;-81
2021/03/09 11:59:49;;;;;;;1.40;1.30;;;10.40;49.60;;;;;;4772459;29;20507;-82
2021/03/09 12:02:15;;;;;;;1.50;1.40;;;10.10;48.80;;;;;;4760054;29;20408;-82
2021/03/09 12:04:41;;;;;;;1.73;1.43;;;10.20;52.60;;;;;;4788203;29;21814;-85
2021/03/09 12:07:07;;;;;;;1.55;1.45;;;10.40;51.90;;;;;;4759440;29;20488;-80
2021/03/09 12:09:32;;;;;;;2.38;1.60;;;10.20;46.10;;;;;;4775187;29;20415;-80
2021/03/09 12:11:58;;;;;;;1.83;1.40;;;10.10;51.40;;;;;;4759199;29;20441;-81
2021/03/09 12:14:24;;;;;;;1.55;1.35;;;10.30;52.70;;;;;;4793367;29;20437;-84
2021/03/09 12:16:49;;;;;;;1.30;1.30;;;10.40;52.50;;;;;;4796817;29;20403;-86
2021/03/09 12:19:15;;;;;;;1.70;1.40;;;10.20;50.60;;;;;;4797290;29;20491;-81
2021/03/09 12:21:41;;;;;;;1.55;1.40;;;10.10;47.40;;;;;;4767570;29;20417;-80
2021/03/09 12:24:07;;;;;;;1.37;1.27;;;9.80;47.70;;;;;;4773398;29;20841;-80
2021/03/09 12:26:33;;;;;;;1.40;1.30;;;9.70;49.60;;;;;;4772158;29;20430;-81
2021/03/09 12:29:00;;;;;;;1.70;1.60;;;9.60;47.60;;;;;;4781199;29;20445;-88
2021/03/09 12:31:25;;;;;;;2.00;1.50;;;9.60;51.70;;;;;;4810711;29;20497;-91
2021/03/09 12:33:51;;;;;;;1.60;1.50;;;9.80;51.80;;;;;;4795631;29;20419;-87
2021/03/09 12:36:17;;;;;;;1.50;1.40;;;9.90;48.00;;;;;;4795900;29;20408;-89
2021/03/09 12:38:43;;;;;;;1.73;1.58;;;9.70;48.60;;;;;;4793563;29;20427;-90
2021/03/09 12:41:08;;;;;;;1.70;1.60;;;9.90;50.80;;;;;;4779970;29;20399;-91
2021/03/09 12:43:34;;;;;;;1.70;1.40;;;10.40;51.40;;;;;;4780451;29;20415;-90
2021/03/09 12:46:01;;;;;;;1.50;1.40;;;10.90;51.70;;;;;;4791791;29;20409;-90
2021/03/09 12:48:27;;;;;;;1.60;1.50;;;11.30;51.20;;;;;;4808979;29;20398;-90
2021/03/09 12:50:54;;;;;;;1.58;1.48;;;11.30;48.70;;;;;;4778504;29;20426;-86
2021/03/09 12:53:20;;;;;;;1.88;1.70;;;11.20;49.40;;;;;;4789107;29;20444;-90
2021/03/09 12:55:46;;;;;;;1.30;1.20;;;11.00;48.50;;;;;;4809841;29;20471;-88
2021/03/09 12:58:13;;;;;;;1.70;1.60;;;11.20;51.50;;;;;;4788662;29;20453;-87
2021/03/09 13:00:39;;;;;;;1.60;1.50;;;11.50;50.90;;;;;;4806791;29;20406;-88
2021/03/09 13:03:06;;;;;;;1.95;1.60;;;11.80;47.40;;;;;;4793608;29;20440;-89
2021/03/09 13:05:33;;;;;;;2.80;1.52;;;11.90;47.90;;;;;;4794429;29;20476;-90
2021/03/09 13:07:59;;;;;;;4.82;1.90;;;11.90;47.40;;;;;;4792091;29;20395;-88
2021/03/09 13:10:26;;;;;;;1.80;1.70;;;11.90;45.70;;;;;;4780351;29;20459;-87
2021/03/09 13:12:53;;;;;;;2.13;1.80;;;12.10;47.00;;;;;;4792649;29;20439;-90
2021/03/09 13:15:20;;;;;;;2.17;1.40;;;12.20;46.80;;;;;;4771348;29;20418;-87
2021/03/09 13:17:50;;;;;;;2.37;1.67;;;12.50;47.20;;;;;;4796457;29;20442;-86
2021/03/09 13:20:18;;;;;;;1.60;1.50;;;12.90;44.30;;;;;;4782134;29;20427;-87
2021/03/09 13:22:48;;;;;;;1.60;1.50;;;12.80;46.00;;;;;;4776881;29;20414;-87
2021/03/09 13:25:17;;;;;;;1.40;1.30;;;13.30;42.30;;;;;;4784804;29;20420;-85
2021/03/09 13:27:46;;;;;;;1.80;1.70;;;13.00;41.20;;;;;;4807005;29;20436;-92
2021/03/09 13:30:17;;;;;;;1.80;1.70;;;12.50;41.30;;;;;;4790940;29;20434;-91
2021/03/09 13:32:44;;;;;;;1.70;1.60;;;11.50;40.40;;;;;;4793383;29;20423;-92
2021/03/09 13:35:11;;;;;;;1.55;1.45;;;11.20;43.50;;;;;;4800161;29;20399;-91
2021/03/09 13:37:38;;;;;;;2.17;1.57;;;11.30;44.80;;;;;;4791420;29;20417;-93
2021/03/09 13:40:06;;;;;;;1.95;1.52;;;11.50;43.20;;;;;;4792737;29;20431;-90
2021/03/09 13:42:32;;;;;;;1.70;1.60;;;11.50;44.90;;;;;;4791772;29;20420;-91
2021/03/09 13:45:01;;;;;;;1.60;1.50;;;11.40;42.40;;;;;;4797276;29;20410;-89
2021/03/09 13:47:27;;;;;;;1.88;1.65;;;11.20;42.00;;;;;;4794501;29;20412;-92
2021/03/09 13:49:53;;;;;;;1.52;1.42;;;10.90;41.20;;;;;;4809371;29;20415;-86
2021/03/09 13:52:18;;;;;;;2.05;1.83;;;10.70;42.00;;;;;;4791712;29;20488;-90
2021/03/09 13:54:44;;;;;;;1.80;1.70;;;10.70;43.80;;;;;;4782252;29;20436;-92